Marbella — IBSR — position and weather

sailwx.info

Track history (hours):
 
Tides and Currents Weather Stations Pressure Air Temp Water Temp Dewpoint Dewpoint Depression Visibility Wind Speed Wind Dir Waves Ship Positions

Marbella

Last reported at 2017-Sep-17 05:01 UTC. Time now 2017-Sep-19 19:10 UTC.
Position N 37°12' E 015°16'.

Length 108 m; draft 4.1 m.

Type: Cargo ship. MMSI: 247386700.

Date/timePositionNaut miles runAvg speedWind from/ knotsBaromVisibWave heightAir tempDewpointWater temp
2017-Sep-17 05:01N 37°12' E 015°16'0 9.6
2017-Sep-17 04:59N 37°12' E 015°16'5 9.6
2017-Sep-17 04:30N 37°15' E 015°20'612.6
2017-Sep-17 04:00N 37°20' E 015°26'612.2
2017-Sep-17 03:30N 37°24' E 015°31'5 9.8
2017-Sep-17 03:00N 37°21' E 015°26'611.9
2017-Sep-17 02:30N 37°25' E 015°32'5 9.2
2017-Sep-17 02:00N 37°22' E 015°28'611.4
2017-Sep-17 01:30N 37°26' E 015°33'611.9
2017-Sep-17 01:00N 37°31' E 015°37'611.7
2017-Sep-17 00:30N 37°35' E 015°42'612.0
2017-Sep-17 00:00N 37°39' E 015°48'611.6
2017-Sep-16 23:30N 37°43' E 015°53'611.3
2017-Sep-16 23:00N 37°47' E 015°58'4211.2
2017-Sep-16 19:16N 38°18' E 016°34'411.0
2017-Sep-16 18:57N 38°20' E 016°37'511.0
2017-Sep-16 18:27N 38°24' E 016°42'510.8
2017-Sep-16 18:00N 38°28' E 016°46'510.3
2017-Sep-16 17:30N 38°32' E 016°50'510.0
2017-Sep-16 16:59N 38°36' E 016°55'510.3
2017-Sep-16 16:28N 38°39' E 016°59'510.4
2017-Sep-16 16:00N 38°43' E 017°04'510.7
2017-Sep-16 15:30N 38°47' E 017°09'510.9
2017-Sep-16 15:00N 38°51' E 017°13'511.0
2017-Sep-16 14:30N 38°54' E 017°18'611.1
2017-Sep-16 14:00N 38°58' E 017°23'611.1
2017-Sep-16 13:30N 39°02' E 017°28'510.8
2017-Sep-16 13:00N 39°06' E 017°33'510.6
2017-Sep-16 12:30N 39°10' E 017°38'510.8
2017-Sep-16 12:00N 39°13' E 017°43'510.8
2017-Sep-16 11:30N 39°17' E 017°48'510.8
2017-Sep-16 11:00N 39°21' E 017°53'510.8
2017-Sep-16 10:30N 39°25' E 017°58'511.0
2017-Sep-16 10:00N 39°29' E 018°03'711.2
2017-Sep-16 09:21N 39°34' E 018°10'612.4
2017-Sep-16 08:54N 39°38' E 018°15'612.1
2017-Sep-16 08:24N 39°42' E 018°21'511.9
2017-Sep-16 08:00N 39°45' E 018°25'711.8
2017-Sep-16 07:26N 39°51' E 018°28'2011.4
2017-Sep-16 05:40N 40°10' E 018°38'211.3
2017-Sep-16 05:30N 40°12' E 018°36'611.3
2017-Sep-16 05:00N 40°16' E 018°32'611.3
2017-Sep-16 04:30N 40°21' E 018°28'611.8
2017-Sep-16 04:00N 40°26' E 018°23'611.8
2017-Sep-16 03:30N 40°31' E 018°19'612.0
2017-Sep-16 03:00N 40°36' E 018°15'612.1
2017-Sep-16 02:30N 40°41' E 018°10'612.0
2017-Sep-16 02:00N 40°45' E 018°04'611.9
2017-Sep-16 01:28N 40°49' E 017°58'611.7
2017-Sep-16 01:00N 40°52' E 017°52'711.9
2017-Sep-16 00:26N 40°57' E 017°46'511.8
2017-Sep-15 23:59N 41°00' E 017°40'611.7
2017-Sep-15 23:30N 41°04' E 017°35'27211.3
2017-Sep-14 23:26N 44°15' E 013°11'510.9
2017-Sep-14 23:00N 44°19' E 013°09'510.5
2017-Sep-14 22:30N 44°24' E 013°07'510.3
2017-Sep-14 21:59N 44°29' E 013°04'510.5
2017-Sep-14 21:30N 44°34' E 013°02'510.7
2017-Sep-14 21:00N 44°39' E 012°59'611.1
2017-Sep-14 20:30N 44°44' E 012°56'510.8
2017-Sep-14 20:00N 44°49' E 012°57'610.9
2017-Sep-14 19:30N 44°55' E 012°59'610.9
2017-Sep-14 19:00N 44°60' E 013°01'511.1
2017-Sep-14 18:30N 45°05' E 013°03'510.5
2017-Sep-14 18:00N 45°10' E 013°04'510.7
2017-Sep-14 17:30N 45°16' E 013°02'510.6
2017-Sep-14 17:00N 45°21' E 013°01'510.9
2017-Sep-14 16:30N 45°26' E 013°05'611.2
2017-Sep-14 16:00N 45°30' E 013°10'611.0
2017-Sep-14 15:30N 45°35' E 013°14'510.8
2017-Sep-14 15:00N 45°40' E 013°15'4 8.7
2017-Sep-14 14:30N 45°44' E 013°15'3 6.2
2017-Sep-14 13:58N 45°48' E 013°14'0 0.1
2017-Sep-14 13:25N 45°48' E 013°14'0 0.0
2017-Sep-14 12:58N 45°48' E 013°14'0 0.0
2017-Sep-14 12:28N 45°48' E 013°14'0 0.0
2017-Sep-14 11:58N 45°48' E 013°14'0 0.0
2017-Sep-14 11:28N 45°48' E 013°14'0 0.0
2017-Sep-14 10:49N 45°48' E 013°14'0 0.0
2017-Sep-14 10:28N 45°48' E 013°14'0 0.0
2017-Sep-14 09:58N 45°48' E 013°14'0 0.0
2017-Sep-14 09:25N 45°48' E 013°14'0 0.0
2017-Sep-14 08:58N 45°48' E 013°14'0 0.0
2017-Sep-14 08:28N 45°48' E 013°14'0 0.0
2017-Sep-14 07:52N 45°48' E 013°14'0 0.0
2017-Sep-14 07:28N 45°48' E 013°14'0 0.0
2017-Sep-14 06:58N 45°48' E 013°14'0 0.0
2017-Sep-14 06:25N 45°48' E 013°14'0 0.0
2017-Sep-14 05:58N 45°48' E 013°14'0 0.0
2017-Sep-14 05:16N 45°48' E 013°14'0 0.0
2017-Sep-14 04:58N 45°48' E 013°14'0 0.0
2017-Sep-14 04:22N 45°48' E 013°14'0 0.0
2017-Sep-14 03:58N 45°48' E 013°14'0 0.0
2017-Sep-14 03:19N 45°48' E 013°14'0 0.0
2017-Sep-14 02:52N 45°48' E 013°14'0 0.0
2017-Sep-14 02:28N 45°48' E 013°14'0 0.0
2017-Sep-14 01:58N 45°48' E 013°14'0 0.0
2017-Sep-14 01:28N 45°48' E 013°14'0 0.0
2017-Sep-14 00:58N 45°48' E 013°14'0 0.0
2017-Sep-14 00:25N 45°48' E 013°14'0 0.0
2017-Sep-13 23:58N 45°48' E 013°14'0 0.0
2017-Sep-13 23:28N 45°48' E 013°14'0 0.0
2017-Sep-13 22:58N 45°48' E 013°14'0 0.0
2017-Sep-13 22:28N 45°48' E 013°14'0 0.0
2017-Sep-13 21:49N 45°48' E 013°14'0 0.0
2017-Sep-13 21:25N 45°48' E 013°14'0 0.0
2017-Sep-13 20:55N 45°48' E 013°14'0 0.0
2017-Sep-13 20:28N 45°48' E 013°14'0 0.0
2017-Sep-13 19:58N 45°48' E 013°14'0 0.0
2017-Sep-13 19:25N 45°48' E 013°14'0 0.0
2017-Sep-13 18:49N 45°48' E 013°14'0 0.0
2017-Sep-13 18:28N 45°48' E 013°14'0 0.0
2017-Sep-13 17:55N 45°48' E 013°14'0 0.0
2017-Sep-13 17:25N 45°48' E 013°14'0 0.0
2017-Sep-13 16:58N 45°48' E 013°14'0 0.0
2017-Sep-13 16:25N 45°48' E 013°14'0 0.0
2017-Sep-13 15:58N 45°48' E 013°14'0 0.0
2017-Sep-13 15:19N 45°48' E 013°14'0 0.0
2017-Sep-13 14:55N 45°48' E 013°14'0 0.0
2017-Sep-13 14:28N 45°48' E 013°14'0 0.0
2017-Sep-13 13:58N 45°48' E 013°14'0 0.0
2017-Sep-13 13:25N 45°48' E 013°14'0 0.0
2017-Sep-13 12:55N 45°48' E 013°14'0 0.0
2017-Sep-13 12:25N 45°48' E 013°14'0 0.0
2017-Sep-13 11:52N 45°48' E 013°14'0 0.0
2017-Sep-13 11:28N 45°48' E 013°14'0 0.0
2017-Sep-13 10:58N 45°48' E 013°14'0 0.0
2017-Sep-13 10:28N 45°48' E 013°14'0 0.0
2017-Sep-13 09:52N 45°48' E 013°14'0 0.0
2017-Sep-13 09:28N 45°48' E 013°14'0 0.0
2017-Sep-13 08:58N 45°48' E 013°14'0 0.0
2017-Sep-13 08:28N 45°48' E 013°14'0 0.0
2017-Sep-13 07:46N 45°48' E 013°14'0 0.0
2017-Sep-13 07:22N 45°48' E 013°14'0 0.0
2017-Sep-13 06:58N 45°48' E 013°14'0 0.0
2017-Sep-13 06:28N 45°48' E 013°14'0 0.0
2017-Sep-13 05:55N 45°48' E 013°14'0 0.0
2017-Sep-13 05:22N 45°48' E 013°14'0 0.0
2017-Sep-13 04:52N 45°48' E 013°14'0 0.0
2017-Sep-13 04:25N 45°48' E 013°14'0 0.0
2017-Sep-13 03:43N 45°48' E 013°14'0 0.0
2017-Sep-13 03:28N 45°48' E 013°14'0 0.0
2017-Sep-13 02:52N 45°48' E 013°14'0 0.0
2017-Sep-13 02:28N 45°48' E 013°14'0 0.0
2017-Sep-13 01:58N 45°48' E 013°14'0 0.0
2017-Sep-13 01:28N 45°48' E 013°14'0 0.0
2017-Sep-13 00:58N 45°48' E 013°14'0 0.0
2017-Sep-13 00:22N 45°48' E 013°14'0 0.0
2017-Sep-12 23:58N 45°48' E 013°14'0 0.0
2017-Sep-12 23:25N 45°48' E 013°14'0 0.0
2017-Sep-12 22:58N 45°48' E 013°14'0 0.0
2017-Sep-12 22:28N 45°48' E 013°14'0 0.0
2017-Sep-12 21:58N 45°48' E 013°14'0 0.0
2017-Sep-12 21:25N 45°48' E 013°14'0 0.0
2017-Sep-12 20:58N 45°48' E 013°14'0 0.0
2017-Sep-12 20:28N 45°48' E 013°14'0 0.0
2017-Sep-12 19:58N 45°48' E 013°14'0 0.0
2017-Sep-12 19:19N 45°48' E 013°14'0 0.0
2017-Sep-12 18:55N 45°48' E 013°14'0 0.0
2017-Sep-12 18:25N 45°48' E 013°14'0 0.0
2017-Sep-12 17:58N 45°48' E 013°14'0 0.0
2017-Sep-12 17:13N 45°48' E 013°14'0 0.0
2017-Sep-12 16:58N 45°48' E 013°14'0 0.0
2017-Sep-12 16:28N 45°48' E 013°14'0 0.0
2017-Sep-12 15:55N 45°48' E 013°14'0 0.0
2017-Sep-12 15:19N 45°48' E 013°14'0 0.0
2017-Sep-12 14:49N 45°48' E 013°14'0 0.0
2017-Sep-12 14:25N 45°48' E 013°14'0 0.0
2017-Sep-12 13:58N 45°48' E 013°14'0 0.0
2017-Sep-12 13:28N 45°48' E 013°14'0 0.0
2017-Sep-12 12:58N 45°48' E 013°14'0 0.0
2017-Sep-12 12:28N 45°48' E 013°14'0 0.0
2017-Sep-12 11:58N 45°48' E 013°14'0 0.0
2017-Sep-12 11:28N 45°48' E 013°14'0 0.0
2017-Sep-12 10:52N 45°48' E 013°14'0 0.0
2017-Sep-12 10:28N 45°48' E 013°14'0 0.0
2017-Sep-12 09:58N 45°48' E 013°14'0 0.0
2017-Sep-12 09:28N 45°48' E 013°14'0 0.0
2017-Sep-12 08:49N 45°48' E 013°14'0 0.0
2017-Sep-12 08:25N 45°48' E 013°14'0 0.0
2017-Sep-12 07:58N 45°48' E 013°14'0 0.0
2017-Sep-12 07:28N 45°48' E 013°14'0 0.0
2017-Sep-12 06:58N 45°48' E 013°14'0 0.0
2017-Sep-12 06:28N 45°48' E 013°14'0 0.0
2017-Sep-12 05:55N 45°48' E 013°14'0 0.0
2017-Sep-12 05:25N 45°48' E 013°14'0 0.0
2017-Sep-12 04:58N 45°48' E 013°14'0 0.0
2017-Sep-12 04:25N 45°48' E 013°14'0 0.0
2017-Sep-12 03:58N 45°48' E 013°14'0 0.0
2017-Sep-12 03:28N 45°48' E 013°14'0 0.0
2017-Sep-12 02:55N 45°48' E 013°14'0 0.0
2017-Sep-12 02:28N 45°48' E 013°14'0 0.0
2017-Sep-12 01:55N 45°48' E 013°14'0 0.0
2017-Sep-12 01:28N 45°48' E 013°14'0 0.0
2017-Sep-12 00:58N 45°48' E 013°14'0 0.0
2017-Sep-12 00:19N 45°48' E 013°14'0 0.0
2017-Sep-11 23:52N 45°48' E 013°14'0 0.0
2017-Sep-11 23:25N 45°48' E 013°14'0 0.0
2017-Sep-11 22:55N 45°48' E 013°14'0 0.0
2017-Sep-11 22:28N 45°48' E 013°14'0 0.0
2017-Sep-11 21:49N 45°48' E 013°14'0 0.0
2017-Sep-11 21:28N 45°48' E 013°14'0 0.0
2017-Sep-11 20:58N 45°48' E 013°14'0 0.0
2017-Sep-11 20:28N 45°48' E 013°14'0 0.0
2017-Sep-11 19:49N 45°48' E 013°14'0 0.0
2017-Sep-11 19:16N 45°48' E 013°14'0 0.0
2017-Sep-11 18:58N 45°48' E 013°14'0 0.0
2017-Sep-11 18:28N 45°48' E 013°14'0 0.0
2017-Sep-11 17:58N 45°48' E 013°14'0 0.0
2017-Sep-11 17:28N 45°48' E 013°14'0 0.0
2017-Sep-11 16:49N 45°48' E 013°14'0 0.0
2017-Sep-11 16:25N 45°48' E 013°14'0 0.0
2017-Sep-11 15:58N 45°48' E 013°14'0 0.0
2017-Sep-11 15:28N 45°48' E 013°14'0 0.0
2017-Sep-11 14:52N 45°48' E 013°14'0 0.0
2017-Sep-11 14:28N 45°48' E 013°14'0 0.0
2017-Sep-11 13:58N 45°48' E 013°14'0 0.0
2017-Sep-11 13:25N 45°48' E 013°14'0 0.1
2017-Sep-11 13:00N 45°48' E 013°14'2 3.9
2017-Sep-11 12:30N 45°46' E 013°15'3 5.4
2017-Sep-11 12:00N 45°43' E 013°15'2 4.5
2017-Sep-11 11:30N 45°41' E 013°16'3 6.0
2017-Sep-11 11:00N 45°38' E 013°18'0 0.2
2017-Sep-11 10:22N 45°38' E 013°17'0 0.0
2017-Sep-11 09:58N 45°38' E 013°17'0 0.0
2017-Sep-11 09:28N 45°38' E 013°17'0 0.0
2017-Sep-11 09:01N 45°38' E 013°17'0 0.0
2017-Sep-11 08:13N 45°38' E 013°17'0 0.0
2017-Sep-11 07:55N 45°38' E 013°17'0 0.0
2017-Sep-11 07:28N 45°38' E 013°17'0 0.1
2017-Sep-11 06:58N 45°38' E 013°17'0 0.0
2017-Sep-11 06:25N 45°38' E 013°17'0 0.0
2017-Sep-11 05:49N 45°38' E 013°17'0 0.0
2017-Sep-11 05:28N 45°38' E 013°17'0 0.1
2017-Sep-11 04:52N 45°38' E 013°17'0 0.0
2017-Sep-11 04:19N 45°38' E 013°17'0 0.0
2017-Sep-11 03:52N 45°38' E 013°17'0 0.0
2017-Sep-11 03:28N 45°38' E 013°17'0 0.2
2017-Sep-11 02:58N 45°38' E 013°18'0 0.2
2017-Sep-11 02:28N 45°38' E 013°17'0 0.1
2017-Sep-11 01:58N 45°38' E 013°18'0 0.1
2017-Sep-11 01:31N 45°38' E 013°18'0 0.0
2017-Sep-11 00:49N 45°38' E 013°18'0 0.1
2017-Sep-11 00:28N 45°38' E 013°18'0 0.0
2017-Sep-10 23:55N 45°38' E 013°18'0 0.5
2017-Sep-10 23:30N 45°38' E 013°17'2 4.1
2017-Sep-10 23:00N 45°36' E 013°17'4 8.0
2017-Sep-10 22:30N 45°32' E 013°16'611.5
2017-Sep-10 22:01N 45°27' E 013°13'611.6
2017-Sep-10 21:30N 45°21' E 013°13'611.8
2017-Sep-10 21:00N 45°15' E 013°14'611.7
2017-Sep-10 20:30N 45°10' E 013°16'611.9
2017-Sep-10 20:00N 45°04' E 013°19'611.8
2017-Sep-10 19:30N 44°59' E 013°23'611.8
2017-Sep-10 19:00N 44°54' E 013°27'611.9
2017-Sep-10 18:30N 44°49' E 013°31'611.7
2017-Sep-10 18:00N 44°44' E 013°35'611.4
2017-Sep-10 17:30N 44°39' E 013°39'1811.3
2017-Sep-10 15:57N 44°24' E 013°53'  
2017-Sep-08 08:49N 36°28' E 014°40'412.1
2017-Sep-08 08:30N 36°27' E 014°36'611.9
2017-Sep-08 08:00N 36°25' E 014°29'611.7
2017-Sep-08 07:30N 36°23' E 014°22'611.6
2017-Sep-08 07:00N 36°22' E 014°15'611.5
2017-Sep-08 06:30N 36°21' E 014°08'611.5
2017-Sep-08 06:00N 36°20' E 014°01'611.3
2017-Sep-08 05:30N 36°18' E 013°54'  
Track history (hours):
 
Tides and Currents Weather Stations Pressure Air Temp Water Temp Dewpoint Dewpoint Depression Visibility Wind Speed Wind Dir Waves Ship Positions

Marbella

Last reported at 2017-Sep-17 05:01 UTC. Time now 2017-Sep-19 19:10 UTC.
Position N 37°12' E 015°16'.

Length 108 m; draft 4.1 m.

Type: Cargo ship. MMSI: 247386700.

Date/timePositionNaut miles runAvg speedWind from/ knotsBaromVisibWave heightAir tempDewpointWater temp
2017-Sep-17 05:01N 37°12' E 015°16'0 9.6
2017-Sep-17 04:59N 37°12' E 015°16'5 9.6
2017-Sep-17 04:30N 37°15' E 015°20'612.6
2017-Sep-17 04:00N 37°20' E 015°26'612.2
2017-Sep-17 03:30N 37°24' E 015°31'5 9.8
2017-Sep-17 03:00N 37°21' E 015°26'611.9
2017-Sep-17 02:30N 37°25' E 015°32'5 9.2
2017-Sep-17 02:00N 37°22' E 015°28'611.4
2017-Sep-17 01:30N 37°26' E 015°33'611.9
2017-Sep-17 01:00N 37°31' E 015°37'611.7
2017-Sep-17 00:30N 37°35' E 015°42'612.0
2017-Sep-17 00:00N 37°39' E 015°48'611.6
2017-Sep-16 23:30N 37°43' E 015°53'611.3
2017-Sep-16 23:00N 37°47' E 015°58'4211.2
2017-Sep-16 19:16N 38°18' E 016°34'411.0
2017-Sep-16 18:57N 38°20' E 016°37'511.0
2017-Sep-16 18:27N 38°24' E 016°42'510.8
2017-Sep-16 18:00N 38°28' E 016°46'510.3
2017-Sep-16 17:30N 38°32' E 016°50'510.0
2017-Sep-16 16:59N 38°36' E 016°55'510.3
2017-Sep-16 16:28N 38°39' E 016°59'510.4
2017-Sep-16 16:00N 38°43' E 017°04'510.7
2017-Sep-16 15:30N 38°47' E 017°09'510.9
2017-Sep-16 15:00N 38°51' E 017°13'511.0
2017-Sep-16 14:30N 38°54' E 017°18'611.1
2017-Sep-16 14:00N 38°58' E 017°23'611.1
2017-Sep-16 13:30N 39°02' E 017°28'510.8
2017-Sep-16 13:00N 39°06' E 017°33'510.6
2017-Sep-16 12:30N 39°10' E 017°38'510.8
2017-Sep-16 12:00N 39°13' E 017°43'510.8
2017-Sep-16 11:30N 39°17' E 017°48'510.8
2017-Sep-16 11:00N 39°21' E 017°53'510.8
2017-Sep-16 10:30N 39°25' E 017°58'511.0
2017-Sep-16 10:00N 39°29' E 018°03'711.2
2017-Sep-16 09:21N 39°34' E 018°10'612.4
2017-Sep-16 08:54N 39°38' E 018°15'612.1
2017-Sep-16 08:24N 39°42' E 018°21'511.9
2017-Sep-16 08:00N 39°45' E 018°25'711.8
2017-Sep-16 07:26N 39°51' E 018°28'2011.4
2017-Sep-16 05:40N 40°10' E 018°38'211.3
2017-Sep-16 05:30N 40°12' E 018°36'611.3
2017-Sep-16 05:00N 40°16' E 018°32'611.3
2017-Sep-16 04:30N 40°21' E 018°28'611.8
2017-Sep-16 04:00N 40°26' E 018°23'611.8
2017-Sep-16 03:30N 40°31' E 018°19'612.0
2017-Sep-16 03:00N 40°36' E 018°15'612.1
2017-Sep-16 02:30N 40°41' E 018°10'612.0
2017-Sep-16 02:00N 40°45' E 018°04'611.9
2017-Sep-16 01:28N 40°49' E 017°58'611.7
2017-Sep-16 01:00N 40°52' E 017°52'711.9
2017-Sep-16 00:26N 40°57' E 017°46'511.8
2017-Sep-15 23:59N 41°00' E 017°40'611.7
2017-Sep-15 23:30N 41°04' E 017°35'27211.3
2017-Sep-14 23:26N 44°15' E 013°11'510.9
2017-Sep-14 23:00N 44°19' E 013°09'510.5
2017-Sep-14 22:30N 44°24' E 013°07'510.3
2017-Sep-14 21:59N 44°29' E 013°04'510.5
2017-Sep-14 21:30N 44°34' E 013°02'510.7
2017-Sep-14 21:00N 44°39' E 012°59'611.1
2017-Sep-14 20:30N 44°44' E 012°56'510.8
2017-Sep-14 20:00N 44°49' E 012°57'610.9
2017-Sep-14 19:30N 44°55' E 012°59'610.9
2017-Sep-14 19:00N 44°60' E 013°01'511.1
2017-Sep-14 18:30N 45°05' E 013°03'510.5
2017-Sep-14 18:00N 45°10' E 013°04'510.7
2017-Sep-14 17:30N 45°16' E 013°02'510.6
2017-Sep-14 17:00N 45°21' E 013°01'510.9
2017-Sep-14 16:30N 45°26' E 013°05'611.2
2017-Sep-14 16:00N 45°30' E 013°10'611.0
2017-Sep-14 15:30N 45°35' E 013°14'510.8
2017-Sep-14 15:00N 45°40' E 013°15'4 8.7
2017-Sep-14 14:30N 45°44' E 013°15'3 6.2
2017-Sep-14 13:58N 45°48' E 013°14'0 0.1
2017-Sep-14 13:25N 45°48' E 013°14'0 0.0
2017-Sep-14 12:58N 45°48' E 013°14'0 0.0
2017-Sep-14 12:28N 45°48' E 013°14'0 0.0
2017-Sep-14 11:58N 45°48' E 013°14'0 0.0
2017-Sep-14 11:28N 45°48' E 013°14'0 0.0
2017-Sep-14 10:49N 45°48' E 013°14'0 0.0
2017-Sep-14 10:28N 45°48' E 013°14'0 0.0
2017-Sep-14 09:58N 45°48' E 013°14'0 0.0
2017-Sep-14 09:25N 45°48' E 013°14'0 0.0
2017-Sep-14 08:58N 45°48' E 013°14'0 0.0
2017-Sep-14 08:28N 45°48' E 013°14'0 0.0
2017-Sep-14 07:52N 45°48' E 013°14'0 0.0
2017-Sep-14 07:28N 45°48' E 013°14'0 0.0
2017-Sep-14 06:58N 45°48' E 013°14'0 0.0
2017-Sep-14 06:25N 45°48' E 013°14'0 0.0
2017-Sep-14 05:58N 45°48' E 013°14'0 0.0
2017-Sep-14 05:16N 45°48' E 013°14'0 0.0
2017-Sep-14 04:58N 45°48' E 013°14'0 0.0
2017-Sep-14 04:22N 45°48' E 013°14'0 0.0
2017-Sep-14 03:58N 45°48' E 013°14'0 0.0
2017-Sep-14 03:19N 45°48' E 013°14'0 0.0
2017-Sep-14 02:52N 45°48' E 013°14'0 0.0
2017-Sep-14 02:28N 45°48' E 013°14'0 0.0
2017-Sep-14 01:58N 45°48' E 013°14'0 0.0
2017-Sep-14 01:28N 45°48' E 013°14'0 0.0
2017-Sep-14 00:58N 45°48' E 013°14'0 0.0
2017-Sep-14 00:25N 45°48' E 013°14'0 0.0
2017-Sep-13 23:58N 45°48' E 013°14'0 0.0
2017-Sep-13 23:28N 45°48' E 013°14'0 0.0
2017-Sep-13 22:58N 45°48' E 013°14'0 0.0
2017-Sep-13 22:28N 45°48' E 013°14'0 0.0
2017-Sep-13 21:49N 45°48' E 013°14'0 0.0
2017-Sep-13 21:25N 45°48' E 013°14'0 0.0
2017-Sep-13 20:55N 45°48' E 013°14'0 0.0
2017-Sep-13 20:28N 45°48' E 013°14'0 0.0
2017-Sep-13 19:58N 45°48' E 013°14'0 0.0
2017-Sep-13 19:25N 45°48' E 013°14'0 0.0
2017-Sep-13 18:49N 45°48' E 013°14'0 0.0
2017-Sep-13 18:28N 45°48' E 013°14'0 0.0
2017-Sep-13 17:55N 45°48' E 013°14'0 0.0
2017-Sep-13 17:25N 45°48' E 013°14'0 0.0
2017-Sep-13 16:58N 45°48' E 013°14'0 0.0
2017-Sep-13 16:25N 45°48' E 013°14'0 0.0
2017-Sep-13 15:58N 45°48' E 013°14'0 0.0
2017-Sep-13 15:19N 45°48' E 013°14'0 0.0
2017-Sep-13 14:55N 45°48' E 013°14'0 0.0
2017-Sep-13 14:28N 45°48' E 013°14'0 0.0
2017-Sep-13 13:58N 45°48' E 013°14'0 0.0
2017-Sep-13 13:25N 45°48' E 013°14'0 0.0
2017-Sep-13 12:55N 45°48' E 013°14'0 0.0
2017-Sep-13 12:25N 45°48' E 013°14'0 0.0
2017-Sep-13 11:52N 45°48' E 013°14'0 0.0
2017-Sep-13 11:28N 45°48' E 013°14'0 0.0
2017-Sep-13 10:58N 45°48' E 013°14'0 0.0
2017-Sep-13 10:28N 45°48' E 013°14'0 0.0
2017-Sep-13 09:52N 45°48' E 013°14'0 0.0
2017-Sep-13 09:28N 45°48' E 013°14'0 0.0
2017-Sep-13 08:58N 45°48' E 013°14'0 0.0
2017-Sep-13 08:28N 45°48' E 013°14'0 0.0
2017-Sep-13 07:46N 45°48' E 013°14'0 0.0
2017-Sep-13 07:22N 45°48' E 013°14'0 0.0
2017-Sep-13 06:58N 45°48' E 013°14'0 0.0
2017-Sep-13 06:28N 45°48' E 013°14'0 0.0
2017-Sep-13 05:55N 45°48' E 013°14'0 0.0
2017-Sep-13 05:22N 45°48' E 013°14'0 0.0
2017-Sep-13 04:52N 45°48' E 013°14'0 0.0
2017-Sep-13 04:25N 45°48' E 013°14'0 0.0
2017-Sep-13 03:43N 45°48' E 013°14'0 0.0
2017-Sep-13 03:28N 45°48' E 013°14'0 0.0
2017-Sep-13 02:52N 45°48' E 013°14'0 0.0
2017-Sep-13 02:28N 45°48' E 013°14'0 0.0
2017-Sep-13 01:58N 45°48' E 013°14'0 0.0
2017-Sep-13 01:28N 45°48' E 013°14'0 0.0
2017-Sep-13 00:58N 45°48' E 013°14'0 0.0
2017-Sep-13 00:22N 45°48' E 013°14'0 0.0
2017-Sep-12 23:58N 45°48' E 013°14'0 0.0
2017-Sep-12 23:25N 45°48' E 013°14'0 0.0
2017-Sep-12 22:58N 45°48' E 013°14'0 0.0
2017-Sep-12 22:28N 45°48' E 013°14'0 0.0
2017-Sep-12 21:58N 45°48' E 013°14'0 0.0
2017-Sep-12 21:25N 45°48' E 013°14'0 0.0
2017-Sep-12 20:58N 45°48' E 013°14'0 0.0
2017-Sep-12 20:28N 45°48' E 013°14'0 0.0
2017-Sep-12 19:58N 45°48' E 013°14'0 0.0
2017-Sep-12 19:19N 45°48' E 013°14'0 0.0
2017-Sep-12 18:55N 45°48' E 013°14'0 0.0
2017-Sep-12 18:25N 45°48' E 013°14'0 0.0
2017-Sep-12 17:58N 45°48' E 013°14'0 0.0
2017-Sep-12 17:13N 45°48' E 013°14'0 0.0
2017-Sep-12 16:58N 45°48' E 013°14'0 0.0
2017-Sep-12 16:28N 45°48' E 013°14'0 0.0
2017-Sep-12 15:55N 45°48' E 013°14'0 0.0
2017-Sep-12 15:19N 45°48' E 013°14'0 0.0
2017-Sep-12 14:49N 45°48' E 013°14'0 0.0
2017-Sep-12 14:25N 45°48' E 013°14'0 0.0
2017-Sep-12 13:58N 45°48' E 013°14'0 0.0
2017-Sep-12 13:28N 45°48' E 013°14'0 0.0
2017-Sep-12 12:58N 45°48' E 013°14'0 0.0
2017-Sep-12 12:28N 45°48' E 013°14'0 0.0
2017-Sep-12 11:58N 45°48' E 013°14'0 0.0
2017-Sep-12 11:28N 45°48' E 013°14'0 0.0
2017-Sep-12 10:52N 45°48' E 013°14'0 0.0
2017-Sep-12 10:28N 45°48' E 013°14'0 0.0
2017-Sep-12 09:58N 45°48' E 013°14'0 0.0
2017-Sep-12 09:28N 45°48' E 013°14'0 0.0
2017-Sep-12 08:49N 45°48' E 013°14'0 0.0
2017-Sep-12 08:25N 45°48' E 013°14'0 0.0
2017-Sep-12 07:58N 45°48' E 013°14'0 0.0
2017-Sep-12 07:28N 45°48' E 013°14'0 0.0
2017-Sep-12 06:58N 45°48' E 013°14'0 0.0
2017-Sep-12 06:28N 45°48' E 013°14'0 0.0
2017-Sep-12 05:55N 45°48' E 013°14'0 0.0
2017-Sep-12 05:25N 45°48' E 013°14'0 0.0
2017-Sep-12 04:58N 45°48' E 013°14'0 0.0
2017-Sep-12 04:25N 45°48' E 013°14'0 0.0
2017-Sep-12 03:58N 45°48' E 013°14'0 0.0
2017-Sep-12 03:28N 45°48' E 013°14'0 0.0
2017-Sep-12 02:55N 45°48' E 013°14'0 0.0
2017-Sep-12 02:28N 45°48' E 013°14'0 0.0
2017-Sep-12 01:55N 45°48' E 013°14'0 0.0
2017-Sep-12 01:28N 45°48' E 013°14'0 0.0
2017-Sep-12 00:58N 45°48' E 013°14'0 0.0
2017-Sep-12 00:19N 45°48' E 013°14'0 0.0
2017-Sep-11 23:52N 45°48' E 013°14'0 0.0
2017-Sep-11 23:25N 45°48' E 013°14'0 0.0
2017-Sep-11 22:55N 45°48' E 013°14'0 0.0
2017-Sep-11 22:28N 45°48' E 013°14'0 0.0
2017-Sep-11 21:49N 45°48' E 013°14'0 0.0
2017-Sep-11 21:28N 45°48' E 013°14'0 0.0
2017-Sep-11 20:58N 45°48' E 013°14'0 0.0
2017-Sep-11 20:28N 45°48' E 013°14'0 0.0
2017-Sep-11 19:49N 45°48' E 013°14'0 0.0
2017-Sep-11 19:16N 45°48' E 013°14'0 0.0
2017-Sep-11 18:58N 45°48' E 013°14'0 0.0
2017-Sep-11 18:28N 45°48' E 013°14'0 0.0
2017-Sep-11 17:58N 45°48' E 013°14'0 0.0
2017-Sep-11 17:28N 45°48' E 013°14'0 0.0
2017-Sep-11 16:49N 45°48' E 013°14'0 0.0
2017-Sep-11 16:25N 45°48' E 013°14'0 0.0
2017-Sep-11 15:58N 45°48' E 013°14'0 0.0
2017-Sep-11 15:28N 45°48' E 013°14'0 0.0
2017-Sep-11 14:52N 45°48' E 013°14'0 0.0
2017-Sep-11 14:28N 45°48' E 013°14'0 0.0
2017-Sep-11 13:58N 45°48' E 013°14'0 0.0
2017-Sep-11 13:25N 45°48' E 013°14'0 0.1
2017-Sep-11 13:00N 45°48' E 013°14'2 3.9
2017-Sep-11 12:30N 45°46' E 013°15'3 5.4
2017-Sep-11 12:00N 45°43' E 013°15'2 4.5
2017-Sep-11 11:30N 45°41' E 013°16'3 6.0
2017-Sep-11 11:00N 45°38' E 013°18'0 0.2
2017-Sep-11 10:22N 45°38' E 013°17'0 0.0
2017-Sep-11 09:58N 45°38' E 013°17'0 0.0
2017-Sep-11 09:28N 45°38' E 013°17'0 0.0
2017-Sep-11 09:01N 45°38' E 013°17'0 0.0
2017-Sep-11 08:13N 45°38' E 013°17'0 0.0
2017-Sep-11 07:55N 45°38' E 013°17'0 0.0
2017-Sep-11 07:28N 45°38' E 013°17'0 0.1
2017-Sep-11 06:58N 45°38' E 013°17'0 0.0
2017-Sep-11 06:25N 45°38' E 013°17'0 0.0
2017-Sep-11 05:49N 45°38' E 013°17'0 0.0
2017-Sep-11 05:28N 45°38' E 013°17'0 0.1
2017-Sep-11 04:52N 45°38' E 013°17'0 0.0
2017-Sep-11 04:19N 45°38' E 013°17'0 0.0
2017-Sep-11 03:52N 45°38' E 013°17'0 0.0
2017-Sep-11 03:28N 45°38' E 013°17'0 0.2
2017-Sep-11 02:58N 45°38' E 013°18'0 0.2
2017-Sep-11 02:28N 45°38' E 013°17'0 0.1
2017-Sep-11 01:58N 45°38' E 013°18'0 0.1
2017-Sep-11 01:31N 45°38' E 013°18'0 0.0
2017-Sep-11 00:49N 45°38' E 013°18'0 0.1
2017-Sep-11 00:28N 45°38' E 013°18'0 0.0
2017-Sep-10 23:55N 45°38' E 013°18'0 0.5
2017-Sep-10 23:30N 45°38' E 013°17'2 4.1
2017-Sep-10 23:00N 45°36' E 013°17'4 8.0
2017-Sep-10 22:30N 45°32' E 013°16'611.5
2017-Sep-10 22:01N 45°27' E 013°13'611.6
2017-Sep-10 21:30N 45°21' E 013°13'611.8
2017-Sep-10 21:00N 45°15' E 013°14'611.7
2017-Sep-10 20:30N 45°10' E 013°16'611.9
2017-Sep-10 20:00N 45°04' E 013°19'611.8
2017-Sep-10 19:30N 44°59' E 013°23'611.8
2017-Sep-10 19:00N 44°54' E 013°27'611.9
2017-Sep-10 18:30N 44°49' E 013°31'611.7
2017-Sep-10 18:00N 44°44' E 013°35'611.4
2017-Sep-10 17:30N 44°39' E 013°39'1811.3
2017-Sep-10 15:57N 44°24' E 013°53'  
2017-Sep-08 08:49N 36°28' E 014°40'412.1
2017-Sep-08 08:30N 36°27' E 014°36'611.9
2017-Sep-08 08:00N 36°25' E 014°29'611.7
2017-Sep-08 07:30N 36°23' E 014°22'611.6
2017-Sep-08 07:00N 36°22' E 014°15'611.5
2017-Sep-08 06:30N 36°21' E 014°08'611.5
2017-Sep-08 06:00N 36°20' E 014°01'611.3
2017-Sep-08 05:30N 36°18' E 013°54'  

Dump ship's entire track history